createdAt,value
2022-12-20T00:01:24.469Z,2.20
2022-12-20T00:03:52.826Z,2.20
2022-12-20T00:06:19.766Z,2.20
2022-12-20T00:08:47.052Z,2.20
2022-12-20T00:11:14.065Z,2.10
2022-12-20T00:13:40.746Z,2.20
2022-12-20T00:16:11.838Z,2.20
2022-12-20T00:18:42.110Z,2.30
2022-12-20T00:21:13.806Z,2.30
2022-12-20T00:23:43.069Z,2.30
2022-12-20T00:26:14.740Z,2.30
2022-12-20T00:28:42.535Z,2.30
2022-12-20T00:31:11.789Z,2.30
2022-12-20T00:33:39.943Z,2.30
2022-12-20T00:36:08.113Z,2.30
2022-12-20T00:38:35.484Z,2.30
2022-12-20T00:41:03.356Z,2.40
2022-12-20T00:43:31.085Z,2.30
2022-12-20T00:46:00.785Z,2.30
2022-12-20T00:48:28.382Z,2.30
2022-12-20T00:51:00.151Z,2.20
2022-12-20T00:53:27.400Z,2.30
2022-12-20T00:55:56.616Z,2.30
2022-12-20T00:58:23.281Z,2.30
2022-12-20T01:00:55.853Z,2.40
2022-12-20T01:03:23.464Z,2.40
2022-12-20T01:06:04.334Z,2.50
2022-12-20T01:08:34.240Z,2.50
2022-12-20T01:11:02.475Z,2.50
2022-12-20T01:13:31.449Z,2.50
2022-12-20T01:16:06.726Z,2.50
2022-12-20T01:18:33.586Z,2.50
2022-12-20T01:21:05.334Z,2.50
2022-12-20T01:23:35.011Z,2.60
2022-12-20T01:26:04.671Z,2.60
2022-12-20T01:28:32.415Z,2.60
2022-12-20T01:30:59.065Z,2.50
2022-12-20T01:33:25.821Z,2.50
2022-12-20T01:36:00.407Z,2.40
2022-12-20T01:38:27.886Z,2.40
2022-12-20T01:40:56.061Z,2.40
2022-12-20T01:43:23.552Z,2.40
2022-12-20T01:45:52.920Z,2.50
2022-12-20T01:48:25.550Z,2.50
2022-12-20T01:50:54.807Z,2.50
2022-12-20T01:53:24.444Z,2.50
2022-12-20T01:55:51.236Z,2.50
2022-12-20T01:58:19.799Z,2.50
2022-12-20T02:00:50.392Z,2.50
2022-12-20T02:03:19.691Z,2.50
2022-12-20T02:05:47.069Z,2.60
2022-12-20T02:08:16.185Z,2.60
2022-12-20T02:10:56.617Z,2.60
2022-12-20T02:13:50.461Z,2.60
2022-12-20T02:16:26.391Z,2.60
2022-12-20T02:19:00.065Z,2.60
2022-12-20T02:21:29.734Z,2.60
2022-12-20T02:24:31.924Z,2.60
2022-12-20T02:27:30.471Z,2.60
2022-12-20T02:30:02.291Z,2.60
2022-12-20T02:32:37.140Z,2.60
2022-12-20T02:35:06.909Z,2.60
2022-12-20T02:37:33.791Z,2.50
2022-12-20T02:40:01.428Z,2.50
2022-12-20T02:42:29.811Z,2.50
2022-12-20T02:45:21.048Z,2.50
2022-12-20T02:48:10.706Z,2.40
2022-12-20T02:50:46.287Z,2.50
2022-12-20T02:53:13.868Z,2.50
2022-12-20T02:55:54.887Z,2.50
2022-12-20T02:58:33.419Z,2.50
2022-12-20T03:01:04.362Z,2.50
2022-12-20T03:03:34.333Z,2.50
2022-12-20T03:06:01.616Z,2.50
2022-12-20T03:08:28.417Z,2.40
2022-12-20T03:10:58.397Z,2.40
2022-12-20T03:13:25.510Z,2.40
2022-12-20T03:15:55.628Z,2.40
2022-12-20T03:18:22.267Z,2.40
2022-12-20T03:20:48.934Z,2.40
2022-12-20T03:23:15.574Z,2.40
2022-12-20T03:25:42.302Z,2.40
2022-12-20T03:28:09.085Z,2.30
2022-12-20T03:30:38.116Z,2.30
2022-12-20T03:33:04.827Z,2.30
2022-12-20T03:35:33.973Z,2.30
2022-12-20T03:38:00.664Z,2.20
2022-12-20T03:40:27.356Z,2.20
2022-12-20T03:42:54.035Z,2.20
2022-12-20T03:45:20.654Z,2.30
2022-12-20T03:47:47.274Z,2.40
2022-12-20T03:50:14.118Z,2.50
2022-12-20T03:52:40.857Z,2.50
2022-12-20T03:55:09.439Z,2.50
2022-12-20T03:57:36.356Z,2.60
2022-12-20T04:00:04.270Z,2.60
2022-12-20T04:02:31.012Z,2.60
2022-12-20T04:04:57.917Z,2.70
2022-12-20T04:07:24.559Z,2.70
2022-12-20T04:09:51.241Z,2.80
2022-12-20T04:12:18.510Z,2.80
2022-12-20T04:14:45.207Z,2.80
2022-12-20T04:17:11.906Z,2.80
2022-12-20T04:19:38.522Z,2.80
2022-12-20T04:22:07.483Z,2.90
2022-12-20T04:24:34.133Z,2.90
2022-12-20T04:27:00.776Z,3.00
2022-12-20T04:29:27.743Z,3.00
2022-12-20T04:31:56.593Z,3.00
2022-12-20T04:34:23.257Z,3.00
2022-12-20T04:36:49.895Z,3.00
2022-12-20T04:39:16.565Z,3.10
2022-12-20T04:41:43.297Z,3.00
2022-12-20T04:44:09.945Z,3.00
2022-12-20T04:46:37.199Z,3.00
2022-12-20T04:49:04.371Z,3.00
2022-12-20T04:51:31.194Z,3.00
2022-12-20T04:53:57.918Z,3.00
2022-12-20T04:56:28.221Z,3.00
2022-12-20T04:58:57.122Z,3.00
2022-12-20T05:01:24.198Z,3.00
2022-12-20T05:03:51.483Z,3.00
2022-12-20T05:06:18.309Z,3.00
2022-12-20T05:08:45.150Z,3.00
2022-12-20T05:11:11.901Z,3.00
2022-12-20T05:13:38.965Z,3.00
2022-12-20T05:16:06.144Z,3.00
2022-12-20T05:18:32.928Z,2.90
2022-12-20T05:21:19.840Z,2.90
2022-12-20T05:24:05.412Z,2.90
2022-12-20T05:26:35.580Z,2.90
2022-12-20T05:29:04.416Z,3.00
2022-12-20T05:31:31.883Z,3.00
2022-12-20T05:33:58.972Z,3.00
2022-12-20T05:36:25.856Z,3.10
2022-12-20T05:39:00.054Z,3.10
2022-12-20T05:41:32.667Z,3.10
2022-12-20T05:43:59.492Z,3.10
2022-12-20T05:46:28.426Z,3.10
2022-12-20T05:48:55.168Z,3.10
2022-12-20T05:51:21.869Z,3.10
2022-12-20T05:53:48.574Z,3.10
2022-12-20T05:56:15.231Z,3.20
2022-12-20T05:58:41.913Z,3.20
2022-12-20T06:01:09.935Z,3.20
2022-12-20T06:03:37.917Z,3.20
2022-12-20T06:06:13.837Z,3.20
2022-12-20T06:08:41.381Z,3.20
2022-12-20T06:11:08.118Z,3.20
2022-12-20T06:13:34.936Z,3.20
2022-12-20T06:16:02.115Z,3.20
2022-12-20T06:18:28.767Z,3.20
2022-12-20T06:20:55.558Z,3.20
2022-12-20T06:23:24.658Z,3.20
2022-12-20T06:25:51.792Z,3.20
2022-12-20T06:28:21.920Z,3.30
2022-12-20T06:30:56.610Z,3.30
2022-12-20T06:33:23.548Z,3.40
2022-12-20T06:35:55.237Z,3.40
2022-12-20T06:38:25.119Z,3.50
2022-12-20T06:40:52.104Z,3.50
2022-12-20T06:43:18.849Z,3.60
2022-12-20T06:45:45.682Z,3.70
2022-12-20T06:48:14.945Z,3.70
2022-12-20T06:50:41.668Z,3.70
2022-12-20T06:53:08.449Z,3.70
2022-12-20T06:55:37.292Z,3.80
2022-12-20T06:58:04.317Z,3.80
2022-12-20T07:00:31.252Z,3.90
2022-12-20T07:02:57.965Z,3.80
2022-12-20T07:05:24.839Z,3.80
2022-12-20T07:07:51.456Z,3.80
2022-12-20T07:10:20.303Z,3.70
2022-12-20T07:12:48.458Z,3.70
2022-12-20T07:15:15.746Z,3.80
2022-12-20T07:17:42.372Z,3.80
2022-12-20T07:20:14.042Z,3.70
2022-12-20T07:22:43.678Z,3.70
2022-12-20T07:25:14.908Z,3.70
2022-12-20T07:27:41.545Z,3.70
2022-12-20T07:30:08.721Z,3.70
2022-12-20T07:32:37.911Z,3.60
2022-12-20T07:35:07.006Z,3.60
2022-12-20T07:37:35.801Z,3.60
2022-12-20T07:40:02.496Z,3.60
2022-12-20T07:42:35.730Z,3.60
2022-12-20T07:45:05.053Z,3.70
2022-12-20T07:47:31.733Z,3.60
2022-12-20T07:49:58.445Z,3.70
2022-12-20T07:52:29.249Z,3.70
2022-12-20T07:55:01.415Z,3.70
2022-12-20T07:57:34.237Z,3.70
2022-12-20T08:00:04.098Z,3.70
2022-12-20T08:02:39.706Z,3.80
2022-12-20T08:05:08.782Z,3.80
2022-12-20T08:07:42.552Z,3.90
2022-12-20T08:10:11.084Z,3.80
2022-12-20T08:12:38.292Z,3.90
2022-12-20T08:15:05.524Z,3.90
2022-12-20T08:17:34.735Z,4.00
2022-12-20T08:20:01.364Z,4.00
2022-12-20T08:22:27.990Z,4.00
2022-12-20T08:24:57.456Z,4.00
2022-12-20T08:27:24.405Z,4.10
2022-12-20T08:29:51.125Z,4.10
2022-12-20T08:32:17.768Z,4.20
2022-12-20T08:34:44.542Z,4.20
2022-12-20T08:37:15.019Z,4.30
2022-12-20T08:39:42.046Z,4.40
2022-12-20T08:42:11.296Z,4.40
2022-12-20T08:44:38.031Z,4.60
2022-12-20T08:47:04.827Z,4.60
2022-12-20T08:49:31.540Z,4.70
2022-12-20T08:52:00.512Z,4.80
2022-12-20T08:54:27.159Z,4.90
2022-12-20T08:56:53.867Z,5.00
2022-12-20T08:59:23.010Z,5.00
2022-12-20T09:01:50.487Z,5.10
2022-12-20T09:04:17.361Z,5.20
2022-12-20T09:06:44.049Z,5.30
2022-12-20T09:09:10.801Z,5.40
2022-12-20T09:11:37.479Z,5.50
2022-12-20T09:14:04.194Z,5.60
2022-12-20T09:16:34.598Z,5.70
2022-12-20T09:19:07.486Z,5.80
2022-12-20T09:21:35.044Z,5.90
2022-12-20T09:24:04.026Z,6.00
2022-12-20T09:26:30.716Z,6.00
2022-12-20T09:28:57.491Z,6.00
2022-12-20T09:31:25.870Z,6.00
2022-12-20T09:33:57.998Z,6.00
2022-12-20T09:36:26.535Z,6.00
2022-12-20T09:38:54.525Z,6.00
2022-12-20T09:41:41.197Z,6.10
2022-12-20T09:44:30.284Z,6.20
2022-12-20T09:47:10.375Z,6.20
2022-12-20T09:49:42.072Z,6.20
2022-12-20T09:52:22.851Z,6.30
2022-12-20T09:55:10.360Z,6.40
2022-12-20T09:57:58.148Z,6.40
2022-12-20T10:00:30.253Z,6.50
2022-12-20T10:03:09.954Z,6.60
2022-12-20T10:06:06.354Z,6.70
2022-12-20T10:08:54.496Z,6.80
2022-12-20T10:12:12.175Z,6.80
2022-12-20T10:14:57.668Z,6.90
2022-12-20T10:17:56.781Z,7.00
2022-12-20T10:20:42.092Z,7.10
2022-12-20T10:23:17.653Z,7.20
2022-12-20T10:25:46.076Z,7.20
2022-12-20T10:28:15.937Z,7.30
2022-12-20T10:30:43.516Z,7.40
2022-12-20T10:33:28.721Z,7.40
2022-12-20T10:35:55.481Z,7.40
2022-12-20T10:38:22.852Z,7.50
2022-12-20T10:43:53.828Z,7.40
2022-12-20T10:46:20.959Z,7.40
2022-12-20T10:48:51.636Z,7.40
2022-12-20T10:51:22.810Z,7.30
2022-12-20T10:53:59.455Z,7.30
2022-12-20T10:56:29.413Z,7.30
2022-12-20T10:59:01.161Z,7.30
2022-12-20T11:01:35.426Z,7.30
2022-12-20T11:04:05.076Z,7.30
2022-12-20T11:06:37.747Z,7.30
2022-12-20T11:09:28.216Z,7.20
2022-12-20T11:12:05.667Z,7.30
2022-12-20T11:14:39.406Z,7.20
2022-12-20T11:17:24.641Z,7.30
2022-12-20T11:20:00.322Z,7.20
2022-12-20T11:22:56.436Z,7.20
2022-12-20T11:25:28.264Z,7.30
2022-12-20T11:28:19.306Z,7.30
2022-12-20T11:31:25.549Z,7.30
2022-12-20T11:34:05.658Z,7.20
2022-12-20T11:36:41.237Z,7.20
2022-12-20T11:39:14.061Z,7.20
2022-12-20T11:41:56.160Z,7.20
2022-12-20T11:44:30.283Z,7.20
2022-12-20T11:47:09.839Z,7.20
2022-12-20T11:50:05.073Z,7.20
2022-12-20T11:52:48.406Z,7.20
2022-12-20T11:55:24.608Z,7.20
2022-12-20T11:58:17.935Z,7.20
2022-12-20T12:01:06.101Z,7.20
2022-12-20T12:03:38.450Z,7.20
2022-12-20T12:06:32.412Z,7.20
2022-12-20T12:09:24.934Z,7.20
2022-12-20T12:12:07.131Z,7.20
2022-12-20T12:15:02.636Z,7.20
2022-12-20T12:17:36.934Z,7.20
2022-12-20T12:20:37.612Z,7.20
2022-12-20T12:23:30.154Z,7.30
2022-12-20T12:26:02.184Z,7.30
2022-12-20T12:28:31.185Z,7.40
2022-12-20T12:31:03.942Z,7.50
2022-12-20T12:33:43.401Z,7.60
2022-12-20T12:36:35.031Z,7.70
2022-12-20T12:39:58.301Z,7.80
2022-12-20T12:42:30.300Z,7.90
2022-12-20T12:45:03.223Z,7.90
2022-12-20T12:47:47.818Z,8.00
2022-12-20T12:50:28.063Z,8.10
2022-12-20T12:52:57.369Z,8.10
2022-12-20T12:55:48.333Z,8.20
2022-12-20T12:58:26.623Z,8.30
2022-12-20T13:00:55.596Z,8.30
2022-12-20T13:03:40.344Z,8.30
2022-12-20T13:06:30.781Z,8.30
2022-12-20T13:09:00.536Z,8.40
2022-12-20T13:11:52.327Z,8.60
2022-12-20T13:14:29.705Z,8.70
2022-12-20T13:17:13.046Z,8.80
2022-12-20T13:19:51.630Z,8.90
2022-12-20T13:22:22.750Z,8.90
2022-12-20T13:24:53.260Z,9.00
2022-12-20T13:27:40.360Z,9.00
2022-12-20T13:30:13.722Z,9.00
2022-12-20T13:32:55.285Z,9.00
2022-12-20T13:35:28.523Z,9.00
2022-12-20T13:38:02.217Z,9.00
2022-12-20T13:40:35.122Z,9.00
2022-12-20T13:43:28.062Z,9.00
2022-12-20T13:46:09.537Z,9.00
2022-12-20T13:48:48.077Z,9.00
2022-12-20T13:51:23.069Z,9.00
2022-12-20T13:54:03.232Z,8.90
2022-12-20T13:56:36.013Z,8.90
2022-12-20T13:59:24.469Z,8.90
2022-12-20T14:01:57.604Z,8.90
2022-12-20T14:04:29.284Z,8.90
2022-12-20T14:07:01.707Z,8.80
2022-12-20T14:09:37.047Z,8.80
2022-12-20T14:12:16.676Z,8.80
2022-12-20T14:14:48.565Z,8.80
2022-12-20T14:17:32.842Z,8.70
2022-12-20T14:20:21.463Z,8.70
2022-12-20T14:23:06.524Z,8.70
2022-12-20T14:25:48.106Z,8.60
2022-12-20T14:28:39.430Z,8.60
2022-12-20T14:31:10.307Z,8.60
2022-12-20T14:33:42.040Z,8.60
2022-12-20T14:36:16.079Z,8.60
2022-12-20T14:38:48.106Z,8.60
2022-12-20T14:41:37.872Z,8.60
2022-12-20T14:44:17.267Z,8.60
2022-12-20T14:46:52.153Z,8.60
2022-12-20T14:49:38.843Z,8.60
2022-12-20T14:52:40.767Z,8.60
2022-12-20T14:55:30.368Z,8.50
2022-12-20T14:57:58.114Z,8.40
2022-12-20T15:00:33.621Z,8.40
2022-12-20T15:03:18.148Z,8.30
2022-12-20T15:05:51.030Z,8.30
2022-12-20T15:08:32.882Z,8.20
2022-12-20T15:11:08.565Z,8.20
2022-12-20T15:13:40.149Z,8.20
2022-12-20T15:16:20.965Z,8.20
2022-12-20T15:19:11.024Z,8.20
2022-12-20T15:21:45.471Z,8.10
2022-12-20T15:24:16.591Z,8.10
2022-12-20T15:26:43.231Z,8.20
2022-12-20T15:29:19.632Z,8.20
2022-12-20T15:31:47.291Z,8.20
2022-12-20T15:34:18.845Z,8.20
2022-12-20T15:36:45.641Z,8.10
2022-12-20T15:39:14.170Z,8.10
2022-12-20T15:41:47.147Z,8.10
2022-12-20T15:44:20.706Z,8.10
2022-12-20T15:46:47.580Z,8.10
2022-12-20T15:49:30.084Z,8.20
2022-12-20T15:51:59.521Z,8.20
2022-12-20T15:54:27.453Z,8.20
2022-12-20T15:56:59.224Z,8.20
2022-12-20T15:59:59.064Z,8.10
2022-12-20T16:02:27.796Z,8.00
2022-12-20T16:04:55.446Z,8.00
2022-12-20T16:07:22.692Z,8.00
2022-12-20T16:09:49.463Z,7.90
2022-12-20T16:12:25.544Z,7.90
2022-12-20T16:14:55.283Z,8.00
2022-12-20T16:17:22.366Z,8.00
2022-12-20T16:19:49.189Z,8.10
2022-12-20T16:22:18.369Z,8.20
2022-12-20T16:24:50.457Z,8.30
2022-12-20T16:27:17.285Z,8.40
2022-12-20T16:29:45.310Z,8.40
2022-12-20T16:32:17.605Z,8.40
2022-12-20T16:34:45.227Z,8.50
2022-12-20T16:37:12.011Z,8.50
2022-12-20T16:39:41.360Z,8.40
2022-12-20T16:42:15.726Z,8.40
2022-12-20T16:44:44.929Z,8.40
2022-12-20T16:47:15.216Z,8.40
2022-12-20T16:49:51.311Z,8.30
2022-12-20T16:52:19.432Z,8.30
2022-12-20T16:54:46.227Z,8.10
2022-12-20T16:57:12.998Z,8.00
2022-12-20T16:59:39.689Z,8.00
2022-12-20T17:02:29.598Z,7.90
2022-12-20T17:04:56.559Z,7.90
2022-12-20T17:07:25.470Z,7.80
2022-12-20T17:10:10.986Z,7.70
2022-12-20T17:12:40.225Z,7.60
2022-12-20T17:15:14.529Z,7.60
2022-12-20T17:17:43.377Z,7.60
2022-12-20T17:20:10.391Z,7.60
2022-12-20T17:25:25.984Z,7.50
2022-12-20T17:27:53.560Z,7.40
2022-12-20T17:30:20.361Z,7.40
2022-12-20T17:32:49.694Z,7.40
2022-12-20T17:35:30.431Z,7.30
2022-12-20T17:38:01.724Z,7.20
2022-12-20T17:40:31.028Z,7.20
2022-12-20T17:42:57.724Z,7.20
2022-12-20T17:45:32.836Z,7.20
2022-12-20T17:47:59.658Z,7.20
2022-12-20T17:50:29.362Z,7.20
2022-12-20T17:52:56.166Z,7.20
2022-12-20T17:55:30.223Z,7.20
2022-12-20T17:57:56.877Z,7.20
2022-12-20T18:00:25.267Z,7.30
2022-12-20T18:02:53.761Z,7.20
2022-12-20T18:05:22.157Z,7.30
2022-12-20T18:07:58.009Z,7.30
2022-12-20T18:10:26.848Z,7.30
2022-12-20T18:12:53.487Z,7.30
2022-12-20T18:15:20.274Z,7.30
2022-12-20T18:17:47.001Z,7.30
2022-12-20T18:20:17.293Z,7.30
2022-12-20T18:22:44.009Z,7.30
2022-12-20T18:25:13.760Z,7.30
2022-12-20T18:27:42.040Z,7.30
2022-12-20T18:30:10.632Z,7.20
2022-12-20T18:32:37.445Z,7.30
2022-12-20T18:35:06.866Z,7.30
2022-12-20T18:37:38.376Z,7.30
2022-12-20T18:40:05.679Z,7.30
2022-12-20T18:42:32.492Z,7.30
2022-12-20T18:45:01.400Z,7.30
2022-12-20T18:47:28.892Z,7.20
2022-12-20T18:49:58.411Z,7.20
2022-12-20T18:52:25.170Z,7.20
2022-12-20T18:54:54.357Z,7.10
2022-12-20T18:57:21.011Z,7.10
2022-12-20T18:59:47.682Z,7.10
2022-12-20T19:02:14.944Z,7.10
2022-12-20T19:04:41.850Z,7.10
2022-12-20T19:07:09.176Z,7.10
2022-12-20T19:09:35.972Z,7.10
2022-12-20T19:12:05.897Z,7.00
2022-12-20T19:14:35.223Z,7.10
2022-12-20T19:17:04.602Z,7.00
2022-12-20T19:19:31.277Z,7.00
2022-12-20T19:21:57.983Z,7.00
2022-12-20T19:24:26.868Z,7.00
2022-12-20T19:26:53.678Z,7.00
2022-12-20T19:29:20.494Z,7.00
2022-12-20T19:31:47.822Z,7.10
2022-12-20T19:34:15.605Z,7.20
2022-12-20T19:36:46.423Z,7.40
2022-12-20T19:39:20.443Z,7.70
2022-12-20T19:42:13.982Z,8.00
2022-12-20T19:44:35.580Z,8.20
2022-12-20T19:47:05.320Z,8.50
2022-12-20T19:49:32.283Z,8.70
2022-12-20T19:52:01.612Z,8.90
2022-12-20T19:54:28.964Z,9.10
2022-12-20T19:56:58.525Z,9.20
2022-12-20T19:59:25.718Z,9.30
2022-12-20T20:01:52.677Z,9.30
2022-12-20T20:04:19.683Z,9.30
2022-12-20T20:06:46.456Z,9.30
2022-12-20T20:09:15.749Z,9.30
2022-12-20T20:11:42.389Z,9.30
2022-12-20T20:14:09.410Z,9.20
2022-12-20T20:16:37.797Z,9.20
2022-12-20T20:19:05.437Z,9.10
2022-12-20T20:21:34.782Z,9.00
2022-12-20T20:24:01.544Z,8.90
2022-12-20T20:26:31.681Z,8.80
2022-12-20T20:29:00.040Z,8.70
2022-12-20T20:31:26.788Z,8.70
2022-12-20T20:33:53.463Z,8.60
2022-12-20T20:36:21.780Z,8.60
2022-12-20T20:38:49.711Z,8.60
2022-12-20T20:41:19.495Z,8.50
2022-12-20T20:43:46.392Z,8.50
2022-12-20T20:46:15.067Z,8.40
2022-12-20T20:48:43.226Z,8.40
2022-12-20T20:51:12.585Z,8.30
2022-12-20T20:53:41.714Z,8.20
2022-12-20T20:56:11.710Z,8.10
2022-12-20T20:58:38.798Z,8.10
2022-12-20T21:01:08.369Z,8.00
2022-12-20T21:03:35.556Z,8.00
2022-12-20T21:06:39.213Z,7.90
2022-12-20T21:08:51.824Z,7.90
2022-12-20T21:11:18.574Z,7.90
2022-12-20T21:13:45.329Z,7.90
2022-12-20T21:16:20.596Z,7.80
2022-12-20T21:18:58.675Z,7.80
2022-12-20T21:21:26.367Z,7.80
2022-12-20T21:23:56.699Z,7.80
2022-12-20T21:26:27.836Z,7.80
2022-12-20T21:28:58.835Z,7.80
2022-12-20T21:31:27.881Z,7.80
2022-12-20T21:33:54.795Z,7.80
2022-12-20T21:36:21.434Z,7.80
2022-12-20T21:38:53.200Z,7.80
2022-12-20T21:41:23.151Z,7.90
2022-12-20T21:43:55.848Z,7.90
2022-12-20T21:46:22.704Z,8.00
2022-12-20T21:48:49.516Z,8.00
2022-12-20T21:51:19.801Z,8.00
2022-12-20T21:53:49.255Z,8.10
2022-12-20T21:56:19.766Z,8.10
2022-12-20T21:58:47.179Z,8.10
2022-12-20T22:01:16.853Z,8.10
2022-12-20T22:03:46.047Z,8.10
2022-12-20T22:06:12.762Z,8.00
2022-12-20T22:08:39.439Z,8.00
2022-12-20T22:11:12.102Z,8.00
2022-12-20T22:13:42.051Z,8.10
2022-12-20T22:16:13.139Z,8.10
2022-12-20T22:18:40.948Z,8.20
2022-12-20T22:21:12.148Z,8.40
2022-12-20T22:23:39.371Z,8.60
2022-12-20T22:26:12.362Z,8.80
2022-12-20T22:28:43.698Z,8.90
2022-12-20T22:31:14.407Z,9.00
2022-12-20T22:33:41.727Z,9.10
2022-12-20T22:36:09.526Z,9.20
2022-12-20T22:38:36.319Z,9.10
2022-12-20T22:41:13.796Z,8.90
2022-12-20T22:43:41.582Z,8.80
2022-12-20T22:46:12.011Z,8.60
2022-12-20T22:48:39.687Z,8.40
2022-12-20T22:51:13.149Z,8.30
2022-12-20T22:53:40.697Z,8.20
2022-12-20T22:56:08.318Z,8.20
2022-12-20T22:58:36.321Z,8.20
2022-12-20T23:01:06.670Z,8.20
2022-12-20T23:03:36.932Z,8.10
2022-12-20T23:06:07.880Z,8.10
2022-12-20T23:08:37.418Z,8.10
2022-12-20T23:11:29.961Z,8.10
2022-12-20T23:14:17.420Z,8.10
2022-12-20T23:16:44.639Z,8.10
2022-12-20T23:19:13.885Z,8.10
2022-12-20T23:21:59.451Z,8.10
2022-12-20T23:24:26.134Z,8.10
2022-12-20T23:26:55.066Z,8.10
2022-12-20T23:29:22.153Z,8.10
2022-12-20T23:31:48.862Z,8.00
2022-12-20T23:34:15.602Z,8.00
2022-12-20T23:36:42.366Z,8.00
2022-12-20T23:39:11.355Z,7.90
2022-12-20T23:41:38.080Z,8.00
2022-12-20T23:44:06.078Z,8.00
2022-12-20T23:46:33.627Z,8.00
2022-12-20T23:49:02.911Z,8.10
2022-12-20T23:51:33.893Z,8.20
2022-12-20T23:54:03.005Z,8.20
2022-12-20T23:56:35.217Z,8.30
2022-12-20T23:59:04.189Z,8.30
